sensor_id;sensor_type;location;lat;lon;timestamp;P1;durP1;ratioP1;P2;durP2;ratioP2
73266;SDS011;61495;53.400;7.608;2023-05-10T00:00:31;12.82;;;7.75;;
73266;SDS011;61495;53.400;7.608;2023-05-10T00:02:57;12.80;;;7.45;;
73266;SDS011;61495;53.400;7.608;2023-05-10T00:05:22;13.52;;;7.90;;
73266;SDS011;61495;53.400;7.608;2023-05-10T00:07:47;11.73;;;7.65;;
73266;SDS011;61495;53.400;7.608;2023-05-10T00:10:13;11.77;;;7.03;;
73266;SDS011;61495;53.400;7.608;2023-05-10T00:12:38;11.20;;;6.60;;
73266;SDS011;61495;53.400;7.608;2023-05-10T00:15:04;11.55;;;6.40;;
73266;SDS011;61495;53.400;7.608;2023-05-10T00:17:30;9.43;;;6.03;;
73266;SDS011;61495;53.400;7.608;2023-05-10T00:19:55;9.98;;;5.75;;
73266;SDS011;61495;53.400;7.608;2023-05-10T00:22:21;7.95;;;5.10;;
73266;SDS011;61495;53.400;7.608;2023-05-10T00:24:46;8.25;;;4.80;;
73266;SDS011;61495;53.400;7.608;2023-05-10T00:27:11;7.77;;;4.17;;
73266;SDS011;61495;53.400;7.608;2023-05-10T00:29:37;9.13;;;4.68;;
73266;SDS011;61495;53.400;7.608;2023-05-10T00:32:02;8.43;;;4.38;;
73266;SDS011;61495;53.400;7.608;2023-05-10T00:34:28;8.15;;;4.75;;
73266;SDS011;61495;53.400;7.608;2023-05-10T00:36:53;7.95;;;4.75;;
73266;SDS011;61495;53.400;7.608;2023-05-10T00:39:18;7.03;;;4.15;;
73266;SDS011;61495;53.400;7.608;2023-05-10T00:41:44;7.35;;;4.25;;
73266;SDS011;61495;53.400;7.608;2023-05-10T00:44:10;8.75;;;4.80;;
73266;SDS011;61495;53.400;7.608;2023-05-10T00:46:35;8.98;;;5.13;;
73266;SDS011;61495;53.400;7.608;2023-05-10T00:49:01;7.88;;;4.47;;
73266;SDS011;61495;53.400;7.608;2023-05-10T00:51:26;6.40;;;4.03;;
73266;SDS011;61495;53.400;7.608;2023-05-10T00:53:52;7.82;;;5.18;;
73266;SDS011;61495;53.400;7.608;2023-05-10T00:56:17;7.95;;;4.35;;
73266;SDS011;61495;53.400;7.608;2023-05-10T00:58:45;9.07;;;4.53;;
73266;SDS011;61495;53.400;7.608;2023-05-10T01:01:10;7.70;;;4.15;;
73266;SDS011;61495;53.400;7.608;2023-05-10T01:03:37;9.05;;;5.40;;
73266;SDS011;61495;53.400;7.608;2023-05-10T01:06:04;8.65;;;4.70;;
73266;SDS011;61495;53.400;7.608;2023-05-10T01:08:30;8.13;;;4.38;;
73266;SDS011;61495;53.400;7.608;2023-05-10T01:10:55;8.65;;;4.80;;
73266;SDS011;61495;53.400;7.608;2023-05-10T01:13:32;7.70;;;4.75;;
73266;SDS011;61495;53.400;7.608;2023-05-10T01:16:01;8.68;;;4.82;;
73266;SDS011;61495;53.400;7.608;2023-05-10T01:18:30;9.95;;;5.03;;
73266;SDS011;61495;53.400;7.608;2023-05-10T01:21:07;7.90;;;4.47;;
73266;SDS011;61495;53.400;7.608;2023-05-10T01:26:27;8.63;;;4.93;;
73266;SDS011;61495;53.400;7.608;2023-05-10T01:29:18;7.72;;;4.10;;
73266;SDS011;61495;53.400;7.608;2023-05-10T01:31:59;9.10;;;5.03;;
73266;SDS011;61495;53.400;7.608;2023-05-10T01:34:37;9.68;;;5.35;;
73266;SDS011;61495;53.400;7.608;2023-05-10T01:37:20;8.10;;;4.80;;
73266;SDS011;61495;53.400;7.608;2023-05-10T01:39:53;9.48;;;4.97;;
73266;SDS011;61495;53.400;7.608;2023-05-10T01:42:25;9.32;;;5.60;;
73266;SDS011;61495;53.400;7.608;2023-05-10T01:44:58;11.05;;;5.85;;
73266;SDS011;61495;53.400;7.608;2023-05-10T01:50:01;8.45;;;4.53;;
73266;SDS011;61495;53.400;7.608;2023-05-10T01:52:30;9.13;;;5.45;;
73266;SDS011;61495;53.400;7.608;2023-05-10T01:55:02;8.88;;;4.80;;
73266;SDS011;61495;53.400;7.608;2023-05-10T01:57:32;8.63;;;5.00;;
73266;SDS011;61495;53.400;7.608;2023-05-10T01:59:59;9.13;;;4.53;;
73266;SDS011;61495;53.400;7.608;2023-05-10T02:02:27;9.48;;;5.18;;
73266;SDS011;61495;53.400;7.608;2023-05-10T02:04:55;11.45;;;5.28;;
73266;SDS011;61495;53.400;7.608;2023-05-10T02:07:22;10.10;;;5.78;;
73266;SDS011;61495;53.400;7.608;2023-05-10T02:09:48;9.02;;;5.43;;
73266;SDS011;61495;53.400;7.608;2023-05-10T02:12:15;10.20;;;5.13;;
73266;SDS011;61495;53.400;7.608;2023-05-10T02:14:42;8.57;;;4.70;;
73266;SDS011;61495;53.400;7.608;2023-05-10T02:17:08;8.80;;;4.93;;
73266;SDS011;61495;53.400;7.608;2023-05-10T02:19:35;10.20;;;5.85;;
73266;SDS011;61495;53.400;7.608;2023-05-10T02:22:03;9.18;;;5.13;;
73266;SDS011;61495;53.400;7.608;2023-05-10T02:24:29;8.20;;;4.60;;
73266;SDS011;61495;53.400;7.608;2023-05-10T02:26:57;9.82;;;6.50;;
73266;SDS011;61495;53.400;7.608;2023-05-10T02:29:23;12.18;;;5.50;;
73266;SDS011;61495;53.400;7.608;2023-05-10T02:31:51;8.55;;;4.70;;
73266;SDS011;61495;53.400;7.608;2023-05-10T02:34:18;8.73;;;5.07;;
73266;SDS011;61495;53.400;7.608;2023-05-10T02:36:46;9.35;;;5.18;;
73266;SDS011;61495;53.400;7.608;2023-05-10T02:39:12;10.95;;;5.55;;
73266;SDS011;61495;53.400;7.608;2023-05-10T02:41:42;9.25;;;4.93;;
73266;SDS011;61495;53.400;7.608;2023-05-10T02:44:09;9.32;;;4.70;;
73266;SDS011;61495;53.400;7.608;2023-05-10T02:46:36;7.93;;;4.13;;
73266;SDS011;61495;53.400;7.608;2023-05-10T02:49:02;7.32;;;4.15;;
73266;SDS011;61495;53.400;7.608;2023-05-10T02:51:29;7.20;;;3.40;;
73266;SDS011;61495;53.400;7.608;2023-05-10T02:53:56;6.43;;;3.70;;
73266;SDS011;61495;53.400;7.608;2023-05-10T02:56:28;7.20;;;3.90;;
73266;SDS011;61495;53.400;7.608;2023-05-10T02:58:57;6.75;;;3.40;;
73266;SDS011;61495;53.400;7.608;2023-05-10T03:01:23;6.00;;;3.33;;
73266;SDS011;61495;53.400;7.608;2023-05-10T03:03:48;6.70;;;3.45;;
73266;SDS011;61495;53.400;7.608;2023-05-10T03:06:14;6.22;;;3.28;;
73266;SDS011;61495;53.400;7.608;2023-05-10T03:08:41;6.97;;;3.75;;
73266;SDS011;61495;53.400;7.608;2023-05-10T03:11:20;7.38;;;3.83;;
73266;SDS011;61495;53.400;7.608;2023-05-10T03:16:47;6.18;;;3.60;;
73266;SDS011;61495;53.400;7.608;2023-05-10T03:19:32;6.13;;;3.70;;
73266;SDS011;61495;53.400;7.608;2023-05-10T03:22:08;7.10;;;3.58;;
73266;SDS011;61495;53.400;7.608;2023-05-10T03:24:35;6.18;;;3.30;;
73266;SDS011;61495;53.400;7.608;2023-05-10T03:27:04;6.50;;;3.30;;
73266;SDS011;61495;53.400;7.608;2023-05-10T03:29:31;7.20;;;4.13;;
73266;SDS011;61495;53.400;7.608;2023-05-10T03:31:58;5.90;;;3.17;;
73266;SDS011;61495;53.400;7.608;2023-05-10T03:34:24;6.97;;;3.72;;
73266;SDS011;61495;53.400;7.608;2023-05-10T03:36:50;6.63;;;3.63;;
73266;SDS011;61495;53.400;7.608;2023-05-10T03:39:16;7.57;;;4.05;;
73266;SDS011;61495;53.400;7.608;2023-05-10T03:41:41;7.93;;;3.58;;
73266;SDS011;61495;53.400;7.608;2023-05-10T03:44:07;6.43;;;3.38;;
73266;SDS011;61495;53.400;7.608;2023-05-10T03:46:32;7.50;;;3.85;;
73266;SDS011;61495;53.400;7.608;2023-05-10T03:48:57;6.50;;;3.88;;
73266;SDS011;61495;53.400;7.608;2023-05-10T03:51:23;6.38;;;3.72;;
73266;SDS011;61495;53.400;7.608;2023-05-10T03:53:49;6.80;;;4.05;;
73266;SDS011;61495;53.400;7.608;2023-05-10T03:56:14;6.97;;;3.70;;
73266;SDS011;61495;53.400;7.608;2023-05-10T03:58:40;7.60;;;3.90;;
73266;SDS011;61495;53.400;7.608;2023-05-10T04:01:05;7.70;;;3.78;;
73266;SDS011;61495;53.400;7.608;2023-05-10T04:03:30;7.95;;;4.40;;
73266;SDS011;61495;53.400;7.608;2023-05-10T04:06:00;7.90;;;3.80;;
73266;SDS011;61495;53.400;7.608;2023-05-10T04:08:26;6.93;;;3.80;;
73266;SDS011;61495;53.400;7.608;2023-05-10T04:10:51;8.35;;;4.80;;
73266;SDS011;61495;53.400;7.608;2023-05-10T04:13:17;7.05;;;3.65;;
73266;SDS011;61495;53.400;7.608;2023-05-10T04:15:42;7.28;;;4.28;;
73266;SDS011;61495;53.400;7.608;2023-05-10T04:18:08;6.95;;;4.13;;
73266;SDS011;61495;53.400;7.608;2023-05-10T04:20:34;7.35;;;4.28;;
73266;SDS011;61495;53.400;7.608;2023-05-10T04:22:59;8.45;;;4.40;;
73266;SDS011;61495;53.400;7.608;2023-05-10T04:25:24;8.70;;;4.63;;
73266;SDS011;61495;53.400;7.608;2023-05-10T04:27:50;8.90;;;5.03;;
73266;SDS011;61495;53.400;7.608;2023-05-10T04:30:15;8.85;;;5.00;;
73266;SDS011;61495;53.400;7.608;2023-05-10T04:32:40;9.07;;;5.07;;
73266;SDS011;61495;53.400;7.608;2023-05-10T04:35:06;9.43;;;5.07;;
73266;SDS011;61495;53.400;7.608;2023-05-10T04:37:32;8.85;;;4.95;;
73266;SDS011;61495;53.400;7.608;2023-05-10T04:39:57;10.27;;;5.05;;
73266;SDS011;61495;53.400;7.608;2023-05-10T04:42:24;7.57;;;4.50;;
73266;SDS011;61495;53.400;7.608;2023-05-10T04:44:50;9.63;;;5.47;;
73266;SDS011;61495;53.400;7.608;2023-05-10T04:47:16;8.23;;;5.03;;
73266;SDS011;61495;53.400;7.608;2023-05-10T04:49:42;9.93;;;4.78;;
73266;SDS011;61495;53.400;7.608;2023-05-10T04:52:07;8.77;;;5.00;;
73266;SDS011;61495;53.400;7.608;2023-05-10T04:54:32;9.50;;;4.05;;
73266;SDS011;61495;53.400;7.608;2023-05-10T04:56:58;8.95;;;5.05;;
73266;SDS011;61495;53.400;7.608;2023-05-10T04:59:23;9.13;;;5.13;;
73266;SDS011;61495;53.400;7.608;2023-05-10T05:01:48;9.02;;;4.90;;
73266;SDS011;61495;53.400;7.608;2023-05-10T05:04:14;10.55;;;5.30;;
73266;SDS011;61495;53.400;7.608;2023-05-10T05:06:39;9.45;;;4.57;;
73266;SDS011;61495;53.400;7.608;2023-05-10T05:09:05;9.13;;;5.18;;
73266;SDS011;61495;53.400;7.608;2023-05-10T05:11:30;8.75;;;4.50;;
73266;SDS011;61495;53.400;7.608;2023-05-10T05:13:56;7.28;;;4.55;;
73266;SDS011;61495;53.400;7.608;2023-05-10T05:16:23;9.70;;;4.72;;
73266;SDS011;61495;53.400;7.608;2023-05-10T05:18:49;8.98;;;4.95;;
73266;SDS011;61495;53.400;7.608;2023-05-10T05:21:15;9.57;;;4.45;;
73266;SDS011;61495;53.400;7.608;2023-05-10T05:23:41;8.85;;;5.10;;
73266;SDS011;61495;53.400;7.608;2023-05-10T05:26:07;9.40;;;4.72;;
73266;SDS011;61495;53.400;7.608;2023-05-10T05:28:33;8.85;;;4.15;;
73266;SDS011;61495;53.400;7.608;2023-05-10T05:31:02;9.38;;;4.93;;
73266;SDS011;61495;53.400;7.608;2023-05-10T05:33:27;9.65;;;5.13;;
73266;SDS011;61495;53.400;7.608;2023-05-10T05:35:53;10.05;;;5.50;;
73266;SDS011;61495;53.400;7.608;2023-05-10T05:38:18;10.50;;;5.65;;
73266;SDS011;61495;53.400;7.608;2023-05-10T05:40:44;10.15;;;5.60;;
73266;SDS011;61495;53.400;7.608;2023-05-10T05:43:10;11.05;;;5.80;;
73266;SDS011;61495;53.400;7.608;2023-05-10T05:45:36;9.73;;;4.77;;
73266;SDS011;61495;53.400;7.608;2023-05-10T05:48:01;9.77;;;4.50;;
73266;SDS011;61495;53.400;7.608;2023-05-10T05:50:27;8.95;;;4.55;;
73266;SDS011;61495;53.400;7.608;2023-05-10T05:52:52;12.48;;;5.13;;
73266;SDS011;61495;53.400;7.608;2023-05-10T05:55:18;10.77;;;4.70;;
73266;SDS011;61495;53.400;7.608;2023-05-10T05:57:43;9.20;;;4.53;;
73266;SDS011;61495;53.400;7.608;2023-05-10T06:00:08;9.63;;;5.07;;
73266;SDS011;61495;53.400;7.608;2023-05-10T06:02:34;9.57;;;5.10;;
73266;SDS011;61495;53.400;7.608;2023-05-10T06:05:00;11.00;;;6.35;;
73266;SDS011;61495;53.400;7.608;2023-05-10T06:07:25;8.90;;;5.05;;
73266;SDS011;61495;53.400;7.608;2023-05-10T06:09:51;8.65;;;4.82;;
73266;SDS011;61495;53.400;7.608;2023-05-10T06:12:16;8.82;;;4.95;;
73266;SDS011;61495;53.400;7.608;2023-05-10T06:14:43;9.35;;;4.75;;
73266;SDS011;61495;53.400;7.608;2023-05-10T06:17:08;10.25;;;5.45;;
73266;SDS011;61495;53.400;7.608;2023-05-10T06:19:34;10.63;;;5.07;;
73266;SDS011;61495;53.400;7.608;2023-05-10T06:22:01;8.13;;;5.25;;
73266;SDS011;61495;53.400;7.608;2023-05-10T06:24:30;9.27;;;4.97;;
73266;SDS011;61495;53.400;7.608;2023-05-10T06:26:55;9.70;;;4.45;;
73266;SDS011;61495;53.400;7.608;2023-05-10T06:29:21;7.68;;;4.93;;
73266;SDS011;61495;53.400;7.608;2023-05-10T06:31:46;10.68;;;5.45;;
73266;SDS011;61495;53.400;7.608;2023-05-10T06:34:12;9.82;;;5.07;;
73266;SDS011;61495;53.400;7.608;2023-05-10T06:36:38;9.52;;;5.18;;
73266;SDS011;61495;53.400;7.608;2023-05-10T06:39:04;9.52;;;5.07;;
73266;SDS011;61495;53.400;7.608;2023-05-10T06:41:30;7.85;;;4.75;;
73266;SDS011;61495;53.400;7.608;2023-05-10T06:43:55;9.60;;;5.90;;
73266;SDS011;61495;53.400;7.608;2023-05-10T06:46:21;9.57;;;5.45;;
73266;SDS011;61495;53.400;7.608;2023-05-10T06:48:46;11.20;;;5.17;;
73266;SDS011;61495;53.400;7.608;2023-05-10T06:51:11;10.47;;;5.90;;
73266;SDS011;61495;53.400;7.608;2023-05-10T06:53:37;11.43;;;5.37;;
73266;SDS011;61495;53.400;7.608;2023-05-10T06:56:02;12.70;;;6.10;;
73266;SDS011;61495;53.400;7.608;2023-05-10T06:58:28;10.77;;;5.57;;
73266;SDS011;61495;53.400;7.608;2023-05-10T07:00:53;10.93;;;5.57;;
73266;SDS011;61495;53.400;7.608;2023-05-10T07:03:18;10.07;;;5.30;;
73266;SDS011;61495;53.400;7.608;2023-05-10T07:05:44;9.90;;;5.57;;
73266;SDS011;61495;53.400;7.608;2023-05-10T07:08:09;12.05;;;7.07;;
73266;SDS011;61495;53.400;7.608;2023-05-10T07:10:35;10.43;;;5.57;;
73266;SDS011;61495;53.400;7.608;2023-05-10T07:13:01;10.65;;;5.30;;
73266;SDS011;61495;53.400;7.608;2023-05-10T07:15:26;7.95;;;5.22;;
73266;SDS011;61495;53.400;7.608;2023-05-10T07:17:51;10.00;;;5.38;;
73266;SDS011;61495;53.400;7.608;2023-05-10T07:20:17;10.30;;;5.32;;
73266;SDS011;61495;53.400;7.608;2023-05-10T07:22:42;10.35;;;5.10;;
73266;SDS011;61495;53.400;7.608;2023-05-10T07:25:08;10.38;;;4.50;;
73266;SDS011;61495;53.400;7.608;2023-05-10T07:27:33;7.82;;;3.83;;
73266;SDS011;61495;53.400;7.608;2023-05-10T07:29:59;7.40;;;3.80;;
73266;SDS011;61495;53.400;7.608;2023-05-10T07:32:25;6.15;;;2.85;;
73266;SDS011;61495;53.400;7.608;2023-05-10T07:34:50;5.50;;;2.78;;
73266;SDS011;61495;53.400;7.608;2023-05-10T07:37:16;5.60;;;2.05;;
73266;SDS011;61495;53.400;7.608;2023-05-10T07:39:42;4.30;;;1.92;;
73266;SDS011;61495;53.400;7.608;2023-05-10T07:42:07;3.88;;;1.65;;
73266;SDS011;61495;53.400;7.608;2023-05-10T07:44:33;5.45;;;2.95;;
73266;SDS011;61495;53.400;7.608;2023-05-10T07:46:58;5.35;;;2.40;;
73266;SDS011;61495;53.400;7.608;2023-05-10T07:49:25;4.10;;;2.03;;
73266;SDS011;61495;53.400;7.608;2023-05-10T07:51:50;5.85;;;2.65;;
73266;SDS011;61495;53.400;7.608;2023-05-10T07:54:16;5.38;;;2.67;;
73266;SDS011;61495;53.400;7.608;2023-05-10T07:56:42;5.03;;;2.83;;
73266;SDS011;61495;53.400;7.608;2023-05-10T07:59:14;5.70;;;2.78;;
73266;SDS011;61495;53.400;7.608;2023-05-10T08:01:41;5.55;;;2.70;;
73266;SDS011;61495;53.400;7.608;2023-05-10T08:04:07;5.13;;;2.55;;
73266;SDS011;61495;53.400;7.608;2023-05-10T08:06:32;5.43;;;2.75;;
73266;SDS011;61495;53.400;7.608;2023-05-10T08:08:57;5.15;;;2.70;;
73266;SDS011;61495;53.400;7.608;2023-05-10T08:11:23;5.35;;;2.70;;
73266;SDS011;61495;53.400;7.608;2023-05-10T08:13:49;5.43;;;2.80;;
73266;SDS011;61495;53.400;7.608;2023-05-10T08:16:15;6.05;;;2.72;;
73266;SDS011;61495;53.400;7.608;2023-05-10T08:18:43;4.93;;;2.10;;
73266;SDS011;61495;53.400;7.608;2023-05-10T08:21:10;5.65;;;2.20;;
73266;SDS011;61495;53.400;7.608;2023-05-10T08:23:39;4.18;;;1.80;;
73266;SDS011;61495;53.400;7.608;2023-05-10T08:26:04;4.15;;;2.15;;
73266;SDS011;61495;53.400;7.608;2023-05-10T08:28:30;4.20;;;1.98;;
73266;SDS011;61495;53.400;7.608;2023-05-10T08:30:56;4.30;;;2.15;;
73266;SDS011;61495;53.400;7.608;2023-05-10T08:33:21;3.60;;;1.85;;
73266;SDS011;61495;53.400;7.608;2023-05-10T08:35:47;3.55;;;1.70;;
73266;SDS011;61495;53.400;7.608;2023-05-10T08:38:13;2.58;;;1.60;;
73266;SDS011;61495;53.400;7.608;2023-05-10T08:40:42;4.72;;;1.60;;
73266;SDS011;61495;53.400;7.608;2023-05-10T08:43:09;3.22;;;1.95;;
73266;SDS011;61495;53.400;7.608;2023-05-10T08:45:38;3.15;;;1.42;;
73266;SDS011;61495;53.400;7.608;2023-05-10T08:48:08;3.30;;;1.50;;
73266;SDS011;61495;53.400;7.608;2023-05-10T08:50:38;3.50;;;1.50;;
73266;SDS011;61495;53.400;7.608;2023-05-10T08:53:06;4.72;;;1.58;;
73266;SDS011;61495;53.400;7.608;2023-05-10T08:55:35;3.97;;;1.83;;
73266;SDS011;61495;53.400;7.608;2023-05-10T08:58:05;3.05;;;1.48;;
73266;SDS011;61495;53.400;7.608;2023-05-10T09:00:32;3.80;;;1.33;;
73266;SDS011;61495;53.400;7.608;2023-05-10T09:02:58;3.60;;;1.35;;
73266;SDS011;61495;53.400;7.608;2023-05-10T09:05:24;2.75;;;1.25;;
73266;SDS011;61495;53.400;7.608;2023-05-10T09:07:50;2.97;;;1.30;;
73266;SDS011;61495;53.400;7.608;2023-05-10T09:10:16;3.30;;;1.73;;
73266;SDS011;61495;53.400;7.608;2023-05-10T09:12:42;3.25;;;1.50;;
73266;SDS011;61495;53.400;7.608;2023-05-10T09:15:10;3.45;;;1.55;;
73266;SDS011;61495;53.400;7.608;2023-05-10T09:17:36;3.15;;;1.63;;
73266;SDS011;61495;53.400;7.608;2023-05-10T09:20:06;3.80;;;1.80;;
73266;SDS011;61495;53.400;7.608;2023-05-10T09:22:35;3.90;;;2.05;;
73266;SDS011;61495;53.400;7.608;2023-05-10T09:25:08;4.72;;;2.20;;
73266;SDS011;61495;53.400;7.608;2023-05-10T09:27:36;5.53;;;3.10;;
73266;SDS011;61495;53.400;7.608;2023-05-10T09:30:03;4.85;;;2.30;;
73266;SDS011;61495;53.400;7.608;2023-05-10T09:32:38;6.70;;;3.00;;
73266;SDS011;61495;53.400;7.608;2023-05-10T09:35:09;5.85;;;3.33;;
73266;SDS011;61495;53.400;7.608;2023-05-10T09:37:36;4.65;;;2.88;;
73266;SDS011;61495;53.400;7.608;2023-05-10T09:40:05;5.85;;;3.47;;
73266;SDS011;61495;53.400;7.608;2023-05-10T09:42:32;5.88;;;3.13;;
73266;SDS011;61495;53.400;7.608;2023-05-10T09:45:02;4.55;;;2.55;;
73266;SDS011;61495;53.400;7.608;2023-05-10T09:47:34;4.63;;;2.33;;
73266;SDS011;61495;53.400;7.608;2023-05-10T09:50:00;4.32;;;2.40;;
73266;SDS011;61495;53.400;7.608;2023-05-10T09:52:30;4.78;;;2.40;;
73266;SDS011;61495;53.400;7.608;2023-05-10T09:55:10;4.72;;;2.60;;
73266;SDS011;61495;53.400;7.608;2023-05-10T09:57:35;6.30;;;2.78;;
73266;SDS011;61495;53.400;7.608;2023-05-10T10:00:01;4.60;;;2.50;;
73266;SDS011;61495;53.400;7.608;2023-05-10T10:02:29;5.45;;;2.22;;
73266;SDS011;61495;53.400;7.608;2023-05-10T10:04:55;5.00;;;2.50;;
73266;SDS011;61495;53.400;7.608;2023-05-10T10:07:22;6.55;;;2.63;;
73266;SDS011;61495;53.400;7.608;2023-05-10T10:09:49;5.43;;;2.90;;
73266;SDS011;61495;53.400;7.608;2023-05-10T10:12:15;5.75;;;2.85;;
73266;SDS011;61495;53.400;7.608;2023-05-10T10:14:41;5.82;;;3.10;;
73266;SDS011;61495;53.400;7.608;2023-05-10T10:17:06;5.65;;;3.28;;
73266;SDS011;61495;53.400;7.608;2023-05-10T10:19:33;5.90;;;3.47;;
73266;SDS011;61495;53.400;7.608;2023-05-10T10:22:00;5.40;;;3.45;;
73266;SDS011;61495;53.400;7.608;2023-05-10T10:24:25;5.55;;;2.85;;
73266;SDS011;61495;53.400;7.608;2023-05-10T10:26:52;4.50;;;2.60;;
73266;SDS011;61495;53.400;7.608;2023-05-10T10:29:25;4.88;;;2.22;;
73266;SDS011;61495;53.400;7.608;2023-05-10T10:32:07;3.95;;;2.00;;
73266;SDS011;61495;53.400;7.608;2023-05-10T10:34:46;3.55;;;1.52;;
73266;SDS011;61495;53.400;7.608;2023-05-10T10:37:12;3.10;;;1.58;;
73266;SDS011;61495;53.400;7.608;2023-05-10T10:39:38;3.80;;;1.60;;
73266;SDS011;61495;53.400;7.608;2023-05-10T10:42:03;3.95;;;1.70;;
73266;SDS011;61495;53.400;7.608;2023-05-10T10:52:23;5.18;;;2.60;;
73266;SDS011;61495;53.400;7.608;2023-05-10T10:54:58;4.57;;;2.47;;
73266;SDS011;61495;53.400;7.608;2023-05-10T10:57:32;5.30;;;2.55;;
73266;SDS011;61495;53.400;7.608;2023-05-10T11:00:30;6.07;;;3.60;;
73266;SDS011;61495;53.400;7.608;2023-05-10T11:03:06;5.85;;;3.25;;
73266;SDS011;61495;53.400;7.608;2023-05-10T11:05:45;6.63;;;3.75;;
73266;SDS011;61495;53.400;7.608;2023-05-10T11:08:32;7.05;;;3.70;;
73266;SDS011;61495;53.400;7.608;2023-05-10T11:13:34;6.90;;;3.10;;
73266;SDS011;61495;53.400;7.608;2023-05-10T11:16:14;6.15;;;3.40;;
73266;SDS011;61495;53.400;7.608;2023-05-10T11:18:40;7.35;;;3.88;;
73266;SDS011;61495;53.400;7.608;2023-05-10T11:21:07;7.20;;;3.40;;
73266;SDS011;61495;53.400;7.608;2023-05-10T11:23:48;6.65;;;3.63;;
73266;SDS011;61495;53.400;7.608;2023-05-10T11:26:15;6.15;;;2.83;;
73266;SDS011;61495;53.400;7.608;2023-05-10T11:28:44;5.95;;;2.90;;
73266;SDS011;61495;53.400;7.608;2023-05-10T11:31:15;7.28;;;4.20;;
73266;SDS011;61495;53.400;7.608;2023-05-10T11:33:42;7.03;;;3.72;;
73266;SDS011;61495;53.400;7.608;2023-05-10T11:36:32;8.68;;;4.05;;
73266;SDS011;61495;53.400;7.608;2023-05-10T11:38:59;6.90;;;3.60;;
73266;SDS011;61495;53.400;7.608;2023-05-10T11:41:25;8.40;;;4.35;;
73266;SDS011;61495;53.400;7.608;2023-05-10T11:43:53;6.53;;;3.60;;
73266;SDS011;61495;53.400;7.608;2023-05-10T11:46:20;6.45;;;3.08;;
73266;SDS011;61495;53.400;7.608;2023-05-10T11:48:46;6.03;;;3.20;;
73266;SDS011;61495;53.400;7.608;2023-05-10T11:51:14;6.38;;;3.90;;
73266;SDS011;61495;53.400;7.608;2023-05-10T11:53:39;5.20;;;3.08;;
73266;SDS011;61495;53.400;7.608;2023-05-10T11:56:05;6.07;;;3.78;;
73266;SDS011;61495;53.400;7.608;2023-05-10T11:58:34;5.47;;;3.55;;
73266;SDS011;61495;53.400;7.608;2023-05-10T12:01:00;5.55;;;3.22;;
73266;SDS011;61495;53.400;7.608;2023-05-10T12:03:27;5.13;;;3.00;;
73266;SDS011;61495;53.400;7.608;2023-05-10T12:05:54;5.60;;;3.17;;
73266;SDS011;61495;53.400;7.608;2023-05-10T12:08:21;5.05;;;3.30;;
73266;SDS011;61495;53.400;7.608;2023-05-10T12:10:53;4.63;;;2.80;;
73266;SDS011;61495;53.400;7.608;2023-05-10T12:13:28;4.85;;;2.90;;
73266;SDS011;61495;53.400;7.608;2023-05-10T12:15:54;4.40;;;2.67;;
73266;SDS011;61495;53.400;7.608;2023-05-10T12:18:23;4.65;;;2.70;;
73266;SDS011;61495;53.400;7.608;2023-05-10T12:20:52;4.63;;;2.60;;
73266;SDS011;61495;53.400;7.608;2023-05-10T12:23:18;4.70;;;2.67;;
73266;SDS011;61495;53.400;7.608;2023-05-10T12:25:45;4.10;;;2.42;;
73266;SDS011;61495;53.400;7.608;2023-05-10T12:28:11;3.92;;;2.38;;
73266;SDS011;61495;53.400;7.608;2023-05-10T12:30:37;4.50;;;2.58;;
73266;SDS011;61495;53.400;7.608;2023-05-10T12:33:10;4.75;;;2.58;;
73266;SDS011;61495;53.400;7.608;2023-05-10T12:35:48;4.18;;;2.42;;
73266;SDS011;61495;53.400;7.608;2023-05-10T12:38:25;4.10;;;2.42;;
73266;SDS011;61495;53.400;7.608;2023-05-10T12:40:59;3.83;;;2.03;;
73266;SDS011;61495;53.400;7.608;2023-05-10T12:43:25;3.72;;;2.17;;
73266;SDS011;61495;53.400;7.608;2023-05-10T12:45:51;3.85;;;2.38;;
73266;SDS011;61495;53.400;7.608;2023-05-10T12:48:17;3.60;;;1.88;;
73266;SDS011;61495;53.400;7.608;2023-05-10T12:50:44;3.80;;;2.20;;
73266;SDS011;61495;53.400;7.608;2023-05-10T12:53:10;4.25;;;2.15;;
73266;SDS011;61495;53.400;7.608;2023-05-10T12:55:36;3.22;;;1.73;;
73266;SDS011;61495;53.400;7.608;2023-05-10T12:58:02;3.42;;;2.15;;
73266;SDS011;61495;53.400;7.608;2023-05-10T13:00:27;3.10;;;1.65;;
73266;SDS011;61495;53.400;7.608;2023-05-10T13:02:53;3.08;;;1.60;;
73266;SDS011;61495;53.400;7.608;2023-05-10T13:05:18;3.13;;;1.58;;
73266;SDS011;61495;53.400;7.608;2023-05-10T13:07:44;3.20;;;1.40;;
73266;SDS011;61495;53.400;7.608;2023-05-10T13:10:10;2.80;;;1.33;;
73266;SDS011;61495;53.400;7.608;2023-05-10T13:12:36;2.72;;;1.40;;
73266;SDS011;61495;53.400;7.608;2023-05-10T13:15:02;2.70;;;1.50;;
73266;SDS011;61495;53.400;7.608;2023-05-10T13:17:28;3.10;;;1.50;;
73266;SDS011;61495;53.400;7.608;2023-05-10T13:19:53;3.60;;;2.08;;
73266;SDS011;61495;53.400;7.608;2023-05-10T13:22:19;3.38;;;1.67;;
73266;SDS011;61495;53.400;7.608;2023-05-10T13:24:44;3.67;;;1.80;;
73266;SDS011;61495;53.400;7.608;2023-05-10T13:27:10;4.38;;;2.25;;
73266;SDS011;61495;53.400;7.608;2023-05-10T13:29:35;3.10;;;1.77;;
73266;SDS011;61495;53.400;7.608;2023-05-10T13:32:00;3.88;;;1.80;;
73266;SDS011;61495;53.400;7.608;2023-05-10T13:34:26;3.92;;;1.92;;
73266;SDS011;61495;53.400;7.608;2023-05-10T13:36:52;4.80;;;1.83;;
73266;SDS011;61495;53.400;7.608;2023-05-10T13:39:18;4.50;;;2.13;;
73266;SDS011;61495;53.400;7.608;2023-05-10T13:41:45;3.72;;;1.88;;
73266;SDS011;61495;53.400;7.608;2023-05-10T13:44:11;4.68;;;1.85;;
73266;SDS011;61495;53.400;7.608;2023-05-10T13:46:38;4.05;;;2.13;;
73266;SDS011;61495;53.400;7.608;2023-05-10T13:49:04;4.32;;;1.77;;
73266;SDS011;61495;53.400;7.608;2023-05-10T13:51:29;3.20;;;1.58;;
73266;SDS011;61495;53.400;7.608;2023-05-10T13:53:56;4.55;;;2.08;;
73266;SDS011;61495;53.400;7.608;2023-05-10T13:56:22;2.95;;;1.42;;
73266;SDS011;61495;53.400;7.608;2023-05-10T13:58:48;3.83;;;1.70;;
73266;SDS011;61495;53.400;7.608;2023-05-10T14:01:13;3.55;;;1.77;;
73266;SDS011;61495;53.400;7.608;2023-05-10T14:03:40;3.80;;;1.67;;
73266;SDS011;61495;53.400;7.608;2023-05-10T14:06:05;4.55;;;1.90;;
73266;SDS011;61495;53.400;7.608;2023-05-10T14:08:32;3.03;;;1.60;;
73266;SDS011;61495;53.400;7.608;2023-05-10T14:10:58;3.50;;;1.67;;
73266;SDS011;61495;53.400;7.608;2023-05-10T14:13:23;3.42;;;1.60;;
73266;SDS011;61495;53.400;7.608;2023-05-10T14:15:48;3.45;;;1.60;;
73266;SDS011;61495;53.400;7.608;2023-05-10T14:18:14;3.42;;;1.38;;
73266;SDS011;61495;53.400;7.608;2023-05-10T14:20:39;4.53;;;1.63;;
73266;SDS011;61495;53.400;7.608;2023-05-10T14:23:05;4.47;;;1.50;;
73266;SDS011;61495;53.400;7.608;2023-05-10T14:25:30;4.65;;;1.75;;
73266;SDS011;61495;53.400;7.608;2023-05-10T14:27:56;4.00;;;1.80;;
73266;SDS011;61495;53.400;7.608;2023-05-10T14:30:21;4.07;;;1.77;;
73266;SDS011;61495;53.400;7.608;2023-05-10T14:32:47;4.38;;;1.92;;
73266;SDS011;61495;53.400;7.608;2023-05-10T14:35:12;4.20;;;1.92;;
73266;SDS011;61495;53.400;7.608;2023-05-10T14:37:38;4.00;;;1.70;;
73266;SDS011;61495;53.400;7.608;2023-05-10T14:40:03;3.95;;;1.95;;
73266;SDS011;61495;53.400;7.608;2023-05-10T14:42:29;4.32;;;2.20;;
73266;SDS011;61495;53.400;7.608;2023-05-10T14:44:56;5.57;;;2.42;;
73266;SDS011;61495;53.400;7.608;2023-05-10T14:47:21;4.30;;;2.17;;
73266;SDS011;61495;53.400;7.608;2023-05-10T14:49:46;5.23;;;2.47;;
73266;SDS011;61495;53.400;7.608;2023-05-10T14:52:12;4.05;;;2.03;;
73266;SDS011;61495;53.400;7.608;2023-05-10T14:54:39;4.95;;;2.65;;
73266;SDS011;61495;53.400;7.608;2023-05-10T14:57:05;7.10;;;3.08;;
73266;SDS011;61495;53.400;7.608;2023-05-10T14:59:31;7.95;;;3.15;;
73266;SDS011;61495;53.400;7.608;2023-05-10T15:01:56;6.00;;;2.97;;
73266;SDS011;61495;53.400;7.608;2023-05-10T15:04:22;6.37;;;3.43;;